createdAt,value
2022-11-15T00:04:25.210Z,13.40
2022-11-15T00:09:52.103Z,14.40
2022-11-15T00:15:19.094Z,14.30
2022-11-15T00:20:46.154Z,14.00
2022-11-15T00:26:16.284Z,14.10
2022-11-15T00:31:44.668Z,14.50
2022-11-15T00:37:11.634Z,14.20
2022-11-15T00:42:38.982Z,14.90
2022-11-15T00:48:06.309Z,14.50
2022-11-15T00:53:33.785Z,16.30
2022-11-15T00:59:02.865Z,15.50
2022-11-15T01:04:30.445Z,14.60
2022-11-15T01:09:57.206Z,14.90
2022-11-15T01:15:24.396Z,15.10
2022-11-15T01:20:51.814Z,14.60
2022-11-15T01:26:19.895Z,15.00
2022-11-15T01:31:47.055Z,16.00
2022-11-15T01:37:14.525Z,15.50
2022-11-15T01:42:41.585Z,15.60
2022-11-15T01:48:11.622Z,16.00
2022-11-15T01:53:44.175Z,14.90
2022-11-15T02:04:43.168Z,15.40
2022-11-15T02:10:14.089Z,15.40
2022-11-15T02:15:49.001Z,16.30
2022-11-15T02:21:30.542Z,15.70
2022-11-15T02:27:23.251Z,15.90
2022-11-15T02:32:55.476Z,15.40
2022-11-15T02:38:33.088Z,16.90
2022-11-15T02:44:06.849Z,17.20
2022-11-15T02:49:37.433Z,15.60
2022-11-15T02:55:05.407Z,17.30
2022-11-15T03:00:38.401Z,16.60
2022-11-15T03:06:12.483Z,17.30
2022-11-15T03:11:45.192Z,16.40
2022-11-15T03:17:19.340Z,16.80
2022-11-15T03:22:50.791Z,15.80
2022-11-15T03:28:23.383Z,17.00
2022-11-15T03:33:50.704Z,17.20
2022-11-15T03:39:20.866Z,16.30
2022-11-15T03:44:55.875Z,17.50
2022-11-15T03:50:25.610Z,16.60
2022-11-15T03:55:52.865Z,17.70
2022-11-15T04:01:19.531Z,20.20
2022-11-15T04:06:46.597Z,19.80
2022-11-15T04:12:13.363Z,19.30
2022-11-15T04:17:41.937Z,20.30
2022-11-15T04:23:31.176Z,19.90
2022-11-15T04:29:17.438Z,19.40
2022-11-15T04:34:44.430Z,20.10
2022-11-15T04:40:13.808Z,20.40
2022-11-15T04:45:40.757Z,20.50
2022-11-15T04:51:07.788Z,19.00
2022-11-15T04:56:34.508Z,20.50
2022-11-15T05:02:01.485Z,19.40
2022-11-15T05:07:28.356Z,20.40
2022-11-15T05:12:55.566Z,19.10
2022-11-15T05:18:23.859Z,20.60
2022-11-15T05:23:51.326Z,21.10
2022-11-15T05:29:18.735Z,19.90
2022-11-15T05:34:45.667Z,19.90
2022-11-15T05:40:13.906Z,22.90
2022-11-15T05:45:41.647Z,22.30
2022-11-15T05:51:10.095Z,21.60
2022-11-15T05:56:37.328Z,20.30
2022-11-15T06:02:04.672Z,20.50
2022-11-15T06:07:34.138Z,23.50
2022-11-15T06:13:06.070Z,21.90
2022-11-15T06:18:34.310Z,22.20
2022-11-15T06:24:01.579Z,21.80
2022-11-15T06:29:28.360Z,21.00
2022-11-15T06:34:55.116Z,21.10
2022-11-15T06:40:22.396Z,22.30
2022-11-15T06:45:49.152Z,20.90
2022-11-15T06:51:16.761Z,22.70
2022-11-15T06:56:44.297Z,21.60
2022-11-15T07:02:17.009Z,22.00
2022-11-15T07:07:44.608Z,22.20
2022-11-15T07:13:11.938Z,22.40
2022-11-15T07:18:40.975Z,20.80
2022-11-15T07:24:08.888Z,21.50
2022-11-15T07:29:36.103Z,21.00
2022-11-15T07:35:04.186Z,20.40
2022-11-15T07:40:32.755Z,19.50
2022-11-15T07:46:00.183Z,19.00
2022-11-15T07:51:27.278Z,18.20
2022-11-15T07:56:55.322Z,18.80
2022-11-15T08:02:25.289Z,18.80
2022-11-15T08:07:54.888Z,17.50
2022-11-15T08:13:22.683Z,18.00
2022-11-15T08:18:49.897Z,17.10
2022-11-15T08:24:17.245Z,17.10
2022-11-15T08:29:45.058Z,16.40
2022-11-15T08:35:12.723Z,16.40
2022-11-15T08:40:39.920Z,16.60
2022-11-15T08:46:06.974Z,16.90
2022-11-15T08:51:34.085Z,16.80
2022-11-15T08:57:02.566Z,16.60
2022-11-15T09:02:30.567Z,16.20
2022-11-15T09:07:59.387Z,16.70
2022-11-15T09:13:26.445Z,14.40
2022-11-15T09:18:53.301Z,15.20
2022-11-15T09:24:20.538Z,14.10
2022-11-15T09:29:47.604Z,15.50
2022-11-15T09:35:14.911Z,15.50
2022-11-15T09:40:42.784Z,16.00
2022-11-15T09:46:19.043Z,16.00
2022-11-15T09:51:51.321Z,15.20
2022-11-15T09:57:09.400Z,14.70
2022-11-15T10:02:36.908Z,13.30
2022-11-15T10:07:58.203Z,14.50
2022-11-15T10:13:15.942Z,14.50
2022-11-15T10:18:34.245Z,16.70
2022-11-15T10:23:42.989Z,18.50
2022-11-15T10:28:51.158Z,18.00
2022-11-15T10:34:15.320Z,16.20
2022-11-15T10:39:23.613Z,17.20
2022-11-15T10:44:34.637Z,15.40
2022-11-15T10:49:59.411Z,17.60
2022-11-15T10:55:28.505Z,16.50
2022-11-15T11:00:40.030Z,15.70
2022-11-15T11:05:48.686Z,14.00
2022-11-15T11:11:03.751Z,11.90
2022-11-15T11:16:43.002Z,13.60
2022-11-15T11:22:01.307Z,13.40
2022-11-15T11:27:21.795Z,15.00
2022-11-15T11:32:59.076Z,18.80
2022-11-15T11:38:22.779Z,17.90
2022-11-15T11:43:41.188Z,16.50
2022-11-15T11:48:53.667Z,14.50
2022-11-15T11:54:06.899Z,14.90
2022-11-15T11:59:26.609Z,12.60
2022-11-15T12:04:40.827Z,12.00
2022-11-15T12:09:56.672Z,16.70
2022-11-15T12:15:13.822Z,15.00
2022-11-15T12:20:25.593Z,15.50
2022-11-15T12:25:39.587Z,15.90
2022-11-15T12:30:53.979Z,18.10
2022-11-15T12:36:06.801Z,14.30
2022-11-15T12:41:23.243Z,10.80
2022-11-15T12:47:25.783Z,14.30
2022-11-15T12:52:34.083Z,17.80
2022-11-15T12:57:47.493Z,17.80
2022-11-15T13:03:24.638Z,27.00
2022-11-15T13:08:48.805Z,13.50
2022-11-15T13:13:57.423Z,11.30
2022-11-15T13:19:07.086Z,10.60
2022-11-15T13:24:21.799Z,9.30
2022-11-15T13:29:30.163Z,9.20
2022-11-15T13:34:55.506Z,9.20
2022-11-15T13:40:23.600Z,8.90
2022-11-15T13:45:31.891Z,9.30
2022-11-15T13:50:42.800Z,9.10
2022-11-15T13:55:51.191Z,9.60
2022-11-15T14:01:06.716Z,10.10
2022-11-15T14:06:16.809Z,10.40
2022-11-15T14:11:25.349Z,9.50
2022-11-15T14:16:39.936Z,9.40
2022-11-15T14:22:16.587Z,10.20
2022-11-15T14:27:31.354Z,9.30
2022-11-15T14:32:49.149Z,8.10
2022-11-15T14:37:57.526Z,9.20
2022-11-15T14:43:05.631Z,9.20
2022-11-15T14:48:13.796Z,10.70
2022-11-15T14:53:23.559Z,11.40
2022-11-15T14:58:32.173Z,54.10
2022-11-15T15:03:40.572Z,63.80
2022-11-15T15:08:52.606Z,151.70
2022-11-15T15:14:02.613Z,120.40
2022-11-15T15:19:10.986Z,89.70
2022-11-15T15:24:19.945Z,69.50
2022-11-15T15:29:28.313Z,90.10
2022-11-15T15:34:36.680Z,89.70
2022-11-15T15:39:45.117Z,124.20
2022-11-15T15:44:53.941Z,176.70
2022-11-15T15:50:02.284Z,151.80
2022-11-15T15:55:11.716Z,122.40
2022-11-15T16:00:22.666Z,115.20
2022-11-15T16:05:30.775Z,86.40
2022-11-15T16:10:39.745Z,140.00
2022-11-15T16:15:52.254Z,100.10
2022-11-15T16:21:01.784Z,99.70
2022-11-15T16:26:23.886Z,83.70
2022-11-15T16:31:33.349Z,44.70
2022-11-15T16:36:41.539Z,24.20
2022-11-15T16:41:49.815Z,19.00
2022-11-15T16:46:58.431Z,17.20
2022-11-15T16:52:06.844Z,13.80
2022-11-15T16:57:17.142Z,15.40
2022-11-15T17:02:25.507Z,20.20
2022-11-15T17:07:34.094Z,133.20
2022-11-15T17:12:42.484Z,102.00
2022-11-15T17:17:55.802Z,61.60
2022-11-15T17:23:04.346Z,46.50
2022-11-15T17:28:13.691Z,53.20
2022-11-15T17:33:22.030Z,70.50
2022-11-15T17:38:31.094Z,68.00
2022-11-15T17:43:39.941Z,64.80
2022-11-15T17:48:48.791Z,38.90
2022-11-15T17:53:58.106Z,33.30
2022-11-15T17:59:12.054Z,26.60
2022-11-15T18:04:22.371Z,21.80
2022-11-15T18:09:30.916Z,25.10
2022-11-15T18:14:39.195Z,25.00
2022-11-15T18:19:49.064Z,60.80
2022-11-15T18:24:57.543Z,51.00
2022-11-15T18:30:06.869Z,44.90
2022-11-15T18:35:15.386Z,48.60
2022-11-15T18:40:23.770Z,66.00
2022-11-15T18:45:32.524Z,65.90
2022-11-15T18:50:40.864Z,83.50
2022-11-15T18:55:49.212Z,70.40
2022-11-15T19:01:05.251Z,55.30
2022-11-15T19:06:16.081Z,41.20
2022-11-15T19:11:29.172Z,43.50
2022-11-15T19:16:39.022Z,31.10
2022-11-15T19:21:47.701Z,21.90
2022-11-15T19:26:56.762Z,20.70
2022-11-15T19:32:05.934Z,24.40
2022-11-15T19:37:14.552Z,18.80
2022-11-15T19:42:23.669Z,16.50
2022-11-15T19:47:32.028Z,16.00
2022-11-15T19:52:41.354Z,19.10
2022-11-15T19:57:49.904Z,21.30
2022-11-15T20:02:58.518Z,20.10
2022-11-15T20:08:08.179Z,17.60
2022-11-15T20:13:16.733Z,16.00
2022-11-15T20:18:25.989Z,14.10
2022-11-15T20:23:34.535Z,12.50
2022-11-15T20:28:44.814Z,13.90
2022-11-15T20:33:53.760Z,14.60
2022-11-15T20:39:03.483Z,14.60
2022-11-15T20:44:12.018Z,17.50
2022-11-15T20:49:20.480Z,18.00
2022-11-15T20:54:29.043Z,17.90
2022-11-15T20:59:37.364Z,16.20
2022-11-15T21:04:45.631Z,14.00
2022-11-15T21:10:12.745Z,12.70
2022-11-15T21:15:21.492Z,11.90
2022-11-15T21:20:30.439Z,12.40
2022-11-15T21:25:39.108Z,12.90
2022-11-15T21:30:57.292Z,12.30
2022-11-15T21:36:05.966Z,12.50
2022-11-15T21:41:14.367Z,12.90
2022-11-15T21:46:22.807Z,12.40
2022-11-15T21:51:31.832Z,12.00
2022-11-15T21:56:40.260Z,12.30
2022-11-15T22:02:07.147Z,11.80
2022-11-15T22:07:15.404Z,11.90
2022-11-15T22:12:29.397Z,11.60
2022-11-15T22:18:02.028Z,11.30
2022-11-15T22:23:10.948Z,10.40
2022-11-15T22:28:20.375Z,10.20
2022-11-15T22:33:30.788Z,10.70
2022-11-15T22:38:40.137Z,10.70
2022-11-15T22:43:49.527Z,9.70
2022-11-15T22:49:03.029Z,9.30
2022-11-15T22:54:12.233Z,9.50
2022-11-15T22:59:21.240Z,9.60
2022-11-15T23:04:30.487Z,9.40
2022-11-15T23:09:39.237Z,9.20
2022-11-15T23:14:47.766Z,9.90
2022-11-15T23:19:56.291Z,9.70
2022-11-15T23:25:04.918Z,10.40
2022-11-15T23:30:43.785Z,11.10
2022-11-15T23:35:59.253Z,11.00
2022-11-15T23:41:08.444Z,10.60
2022-11-15T23:46:17.133Z,10.90
2022-11-15T23:51:26.076Z,11.10
2022-11-15T23:56:35.035Z,10.40
